Time;durP1;ratioP1;P1;durP2;ratioP2;P2;SDS_P1;SDS_P2;PMS_P1;PMS_P2;Temp;Humidity;BMP_temperature;BMP_pressure;BME280_temperature;BME280_humidity;BME280_pressure;Samples;Min_cycle;Max_cycle;Signal;HPM_P1;HPM_P2
2023/09/02 00:02:21;;;;;;;5.38;2.17;;;13.20;99.90;;;;;;4738339;30;20055;-75
2023/09/02 00:04:46;;;;;;;4.13;2.13;;;13.10;99.90;;;;;;4738170;30;20052;-75
2023/09/02 00:07:12;;;;;;;3.47;2.03;;;13.10;99.90;;;;;;4754295;30;20088;-75
2023/09/02 00:09:38;;;;;;;3.55;1.90;;;13.10;99.90;;;;;;4738191;30;20132;-75
2023/09/02 00:12:04;;;;;;;6.50;3.88;;;13.00;99.90;;;;;;4738218;30;20052;-75
2023/09/02 00:14:29;;;;;;;7.20;3.97;;;13.00;99.90;;;;;;4738444;30;20143;-75
2023/09/02 00:16:55;;;;;;;6.68;3.95;;;13.00;99.90;;;;;;4754000;30;20466;-74
2023/09/02 00:19:21;;;;;;;5.07;3.15;;;12.90;99.90;;;;;;4738212;30;20063;-74
2023/09/02 00:21:47;;;;;;;7.18;3.88;;;12.90;99.90;;;;;;4738267;30;20047;-75
2023/09/02 00:24:12;;;;;;;6.82;4.00;;;12.90;99.90;;;;;;4737240;30;20562;-74
2023/09/02 00:26:38;;;;;;;6.65;4.03;;;12.90;99.90;;;;;;4753877;30;20052;-74
2023/09/02 00:29:03;;;;;;;5.13;3.13;;;12.90;99.90;;;;;;4737995;30;20456;-74
2023/09/02 00:31:29;;;;;;;7.95;3.90;;;12.80;99.90;;;;;;4753728;30;20052;-75
2023/09/02 00:33:55;;;;;;;8.75;4.10;;;12.80;99.90;;;;;;4753851;30;20048;-75
2023/09/02 00:36:21;;;;;;;5.72;3.53;;;12.70;99.90;;;;;;4737708;30;20052;-75
2023/09/02 00:38:47;;;;;;;7.72;3.80;;;12.70;99.90;;;;;;4737691;30;20056;-74
2023/09/02 00:41:26;;;;;;;8.20;4.00;;;12.70;99.90;;;;;;4753687;30;20048;-74
2023/09/02 00:43:55;;;;;;;7.25;4.18;;;12.70;99.90;;;;;;4753630;30;20059;-74
2023/09/02 00:46:22;;;;;;;7.32;3.95;;;12.60;99.90;;;;;;4737417;30;20052;-75
2023/09/02 00:48:48;;;;;;;7.22;3.90;;;12.60;99.90;;;;;;4737566;30;20056;-75
2023/09/02 00:51:13;;;;;;;8.15;3.28;;;12.60;99.90;;;;;;4753574;30;20052;-75
2023/09/02 00:53:39;;;;;;;5.82;3.20;;;12.50;99.90;;;;;;4737608;30;20056;-75
2023/09/02 00:56:05;;;;;;;7.20;4.63;;;12.50;99.90;;;;;;4753209;30;20472;-74
2023/09/02 00:58:34;;;;;;;7.18;4.13;;;12.50;99.90;;;;;;4737482;30;20048;-74
2023/09/02 01:01:03;;;;;;;6.30;3.15;;;12.50;99.90;;;;;;4737462;30;20048;-74
2023/09/02 01:03:28;;;;;;;6.35;3.50;;;12.50;99.90;;;;;;4737571;30;20448;-75
2023/09/02 01:05:54;;;;;;;5.40;3.10;;;12.50;99.90;;;;;;4737201;30;20052;-74
2023/09/02 01:08:20;;;;;;;10.02;2.83;;;12.50;99.90;;;;;;4737575;30;20048;-74
2023/09/02 01:10:47;;;;;;;6.25;2.90;;;12.50;99.90;;;;;;4737602;30;20505;-75
2023/09/02 01:13:12;;;;;;;5.97;3.20;;;12.50;99.90;;;;;;4737535;30;20052;-75
2023/09/02 01:15:38;;;;;;;4.47;2.50;;;12.40;99.90;;;;;;4753190;30;20053;-75
2023/09/02 01:18:04;;;;;;;4.75;2.45;;;12.40;99.90;;;;;;4753159;30;20383;-75
2023/09/02 01:20:55;;;;;;;5.78;2.30;;;12.40;99.90;;;;;;4737409;30;20078;-75
2023/09/02 01:24:03;;;;;;;4.45;1.90;;;12.40;99.90;;;;;;4737400;30;20404;-74
2023/09/02 01:26:55;;;;;;;3.90;2.00;;;12.40;99.90;;;;;;4736999;30;20052;-74
2023/09/02 01:29:24;;;;;;;5.70;2.50;;;12.40;99.90;;;;;;4736816;30;20063;-75
2023/09/02 01:31:52;;;;;;;3.47;1.83;;;12.30;99.90;;;;;;4737076;30;20501;-74
2023/09/02 01:34:19;;;;;;;4.43;2.25;;;12.30;99.90;;;;;;4736741;30;20052;-74
2023/09/02 01:36:50;;;;;;;4.60;1.98;;;12.30;99.90;;;;;;4736746;30;20090;-75
2023/09/02 01:39:20;;;;;;;3.50;2.10;;;12.30;99.90;;;;;;4737133;30;20060;-74
2023/09/02 01:41:47;;;;;;;3.70;2.22;;;12.30;99.90;;;;;;4737251;30;20063;-74
2023/09/02 01:44:14;;;;;;;3.25;1.92;;;12.30;99.90;;;;;;4737011;30;20052;-74
2023/09/02 01:46:40;;;;;;;3.17;1.70;;;12.30;99.90;;;;;;4736804;30;20052;-74
2023/09/02 01:49:07;;;;;;;6.03;2.30;;;12.30;99.90;;;;;;4737113;30;20055;-75
2023/09/02 01:51:33;;;;;;;5.03;2.30;;;12.30;99.90;;;;;;4737155;30;20056;-74
2023/09/02 01:53:59;;;;;;;4.70;2.90;;;12.30;99.90;;;;;;4736873;30;20136;-74
2023/09/02 01:56:25;;;;;;;4.18;2.20;;;12.30;99.90;;;;;;4752608;30;20076;-75
2023/09/02 01:58:52;;;;;;;4.45;2.60;;;12.20;99.90;;;;;;4736682;30;20119;-74
2023/09/02 02:01:18;;;;;;;4.35;2.13;;;12.20;99.90;;;;;;4736753;30;20056;-75
2023/09/02 02:04:25;;;;;;;5.63;2.40;;;12.20;99.90;;;;;;4737146;30;20048;-74
2023/09/02 02:06:53;;;;;;;5.57;2.30;;;12.20;99.90;;;;;;4736772;30;20064;-74
2023/09/02 02:09:33;;;;;;;4.50;2.30;;;12.10;99.90;;;;;;4737024;30;20534;-74
2023/09/02 02:12:01;;;;;;;3.72;2.33;;;12.10;99.90;;;;;;4752756;30;20059;-74
2023/09/02 02:14:31;;;;;;;5.82;2.38;;;12.10;99.90;;;;;;4736796;30;20067;-74
2023/09/02 02:16:57;;;;;;;3.72;2.28;;;12.10;99.90;;;;;;4736730;30;20048;-74
2023/09/02 02:19:22;;;;;;;6.55;2.60;;;12.10;99.90;;;;;;4737095;30;20063;-74
2023/09/02 02:21:48;;;;;;;4.13;2.40;;;12.00;99.90;;;;;;4736925;30;20044;-74
2023/09/02 02:24:14;;;;;;;6.50;2.05;;;12.00;99.90;;;;;;4736783;30;20056;-75
2023/09/02 02:26:40;;;;;;;6.63;2.38;;;12.00;99.90;;;;;;4736474;30;20524;-74
2023/09/02 02:29:05;;;;;;;5.35;2.10;;;12.00;99.90;;;;;;4736529;30;20048;-74
2023/09/02 02:31:33;;;;;;;4.43;2.03;;;12.00;99.90;;;;;;4736665;30;20055;-74
2023/09/02 02:33:58;;;;;;;5.03;1.73;;;12.00;99.90;;;;;;4736492;30;20101;-74
2023/09/02 02:36:24;;;;;;;4.43;2.15;;;11.90;99.90;;;;;;4736876;30;20056;-74
2023/09/02 02:38:50;;;;;;;3.20;1.63;;;11.90;99.90;;;;;;4736686;30;20151;-74
2023/09/02 02:41:15;;;;;;;4.13;1.92;;;11.90;99.90;;;;;;4736590;30;20052;-74
2023/09/02 02:43:41;;;;;;;3.22;1.95;;;11.90;99.90;;;;;;4736708;30;20493;-74
2023/09/02 02:46:07;;;;;;;2.90;1.67;;;11.90;99.90;;;;;;4736453;30;20093;-74
2023/09/02 02:48:32;;;;;;;4.35;2.25;;;11.80;99.90;;;;;;4739230;30;20070;-74
2023/09/02 02:50:58;;;;;;;3.40;1.92;;;11.80;99.90;;;;;;4739667;30;20056;-74
2023/09/02 02:53:24;;;;;;;4.30;1.85;;;11.80;99.90;;;;;;4739680;30;20055;-74
2023/09/02 02:55:50;;;;;;;5.63;2.30;;;11.80;99.90;;;;;;4755264;30;20444;-74
2023/09/02 02:58:20;;;;;;;5.13;2.20;;;11.70;99.90;;;;;;4739325;30;20489;-74
2023/09/02 03:00:46;;;;;;;5.93;2.47;;;11.80;99.90;;;;;;4739704;30;20073;-74
2023/09/02 03:03:12;;;;;;;4.60;2.17;;;11.70;99.90;;;;;;4739492;30;20601;-74
2023/09/02 03:05:39;;;;;;;6.15;2.65;;;11.70;99.90;;;;;;4739102;30;20079;-74
2023/09/02 03:08:06;;;;;;;5.18;2.63;;;11.70;99.90;;;;;;4739358;30;20052;-74
2023/09/02 03:10:35;;;;;;;3.97;2.40;;;11.60;99.90;;;;;;4739476;30;20056;-74
2023/09/02 03:13:04;;;;;;;5.60;2.40;;;11.60;99.90;;;;;;4739400;30;20044;-74
2023/09/02 03:15:30;;;;;;;3.42;2.20;;;11.60;99.90;;;;;;4739148;30;20447;-74
2023/09/02 03:17:56;;;;;;;6.38;2.08;;;11.60;99.90;;;;;;4755048;30;20550;-74
2023/09/02 03:20:21;;;;;;;4.05;2.20;;;11.60;99.90;;;;;;4739148;30;20401;-74
2023/09/02 03:22:47;;;;;;;4.68;1.92;;;11.50;99.90;;;;;;4739260;30;20064;-74
2023/09/02 03:25:13;;;;;;;3.70;2.40;;;11.60;99.90;;;;;;4739125;30;20558;-74
2023/09/02 03:27:39;;;;;;;3.90;2.53;;;11.50;99.90;;;;;;4754766;30;20062;-74
2023/09/02 03:30:06;;;;;;;7.47;2.22;;;11.50;99.90;;;;;;4739005;30;20048;-74
2023/09/02 03:32:32;;;;;;;4.45;2.25;;;11.50;99.90;;;;;;4739195;30;20082;-74
2023/09/02 03:34:57;;;;;;;5.30;2.25;;;11.60;99.90;;;;;;4739005;30;20044;-74
2023/09/02 03:37:24;;;;;;;7.35;2.30;;;11.60;99.90;;;;;;4738782;30;20522;-74
2023/09/02 03:39:50;;;;;;;5.43;1.90;;;11.50;99.90;;;;;;4738747;30;20055;-74
2023/09/02 03:42:19;;;;;;;6.00;2.30;;;11.50;99.90;;;;;;4754733;30;20060;-74
2023/09/02 03:44:44;;;;;;;4.68;1.83;;;11.50;99.90;;;;;;4754661;30;20052;-74
2023/09/02 03:47:10;;;;;;;4.55;1.95;;;11.50;99.90;;;;;;4738703;30;20063;-74
2023/09/02 03:49:35;;;;;;;6.13;2.28;;;11.50;99.90;;;;;;4738745;30;20052;-74
2023/09/02 03:52:01;;;;;;;5.30;2.60;;;11.40;99.90;;;;;;4738490;30;20052;-74
2023/09/02 03:54:27;;;;;;;3.95;2.20;;;11.40;99.90;;;;;;4738522;30;20078;-74
2023/09/02 03:56:52;;;;;;;5.15;2.30;;;11.40;99.90;;;;;;4754284;30;20056;-74
2023/09/02 03:59:19;;;;;;;3.45;2.10;;;11.40;99.90;;;;;;4738670;30;20056;-74
2023/09/02 04:01:45;;;;;;;3.88;2.33;;;11.40;99.90;;;;;;4738153;30;20504;-74
2023/09/02 04:04:11;;;;;;;3.33;1.80;;;11.40;99.90;;;;;;4738312;30;20067;-74
2023/09/02 04:06:38;;;;;;;4.00;2.08;;;11.30;99.90;;;;;;4738192;30;20060;-74
2023/09/02 04:09:05;;;;;;;3.22;1.85;;;11.30;99.90;;;;;;4738302;30;20059;-74
2023/09/02 04:11:31;;;;;;;3.42;2.10;;;11.20;99.90;;;;;;4754309;30;20142;-74
2023/09/02 04:13:57;;;;;;;4.82;2.03;;;11.20;99.90;;;;;;4738150;30;20090;-74
2023/09/02 04:16:22;;;;;;;4.00;2.45;;;11.30;99.90;;;;;;4738130;30;20044;-74
2023/09/02 04:18:48;;;;;;;3.08;2.10;;;11.20;99.90;;;;;;4737969;30;20052;-74
2023/09/02 04:21:14;;;;;;;5.88;2.45;;;11.20;99.90;;;;;;4738120;30;20489;-74
2023/09/02 04:23:41;;;;;;;4.03;1.92;;;11.20;99.90;;;;;;4737970;30;20201;-74
2023/09/02 04:26:07;;;;;;;5.80;2.22;;;11.20;99.90;;;;;;4737905;30;20060;-74
2023/09/02 04:28:33;;;;;;;4.45;2.45;;;11.20;99.90;;;;;;4753760;30;20051;-74
2023/09/02 04:30:59;;;;;;;4.80;2.33;;;11.20;99.90;;;;;;4737956;30;20083;-74
2023/09/02 04:33:25;;;;;;;5.25;2.47;;;11.20;99.90;;;;;;4737721;30;20129;-74
2023/09/02 04:35:51;;;;;;;4.72;2.40;;;11.20;99.90;;;;;;4753348;30;20110;-74
2023/09/02 04:38:20;;;;;;;4.22;2.22;;;11.10;99.90;;;;;;4736964;30;20157;-74
2023/09/02 04:40:45;;;;;;;5.35;2.10;;;11.10;99.90;;;;;;4737503;30;20095;-74
2023/09/02 04:43:13;;;;;;;5.22;1.73;;;11.10;99.90;;;;;;4737945;30;20079;-74
2023/09/02 04:45:40;;;;;;;4.50;2.38;;;11.10;99.90;;;;;;4737329;30;20056;-74
2023/09/02 04:48:07;;;;;;;8.73;2.40;;;11.10;99.90;;;;;;4737485;30;20055;-74
2023/09/02 04:50:34;;;;;;;6.32;2.20;;;11.10;99.90;;;;;;4737676;30;20067;-74
2023/09/02 04:53:01;;;;;;;4.40;1.75;;;11.10;99.90;;;;;;4737599;30;20059;-74
2023/09/02 04:55:28;;;;;;;3.80;2.10;;;11.10;99.90;;;;;;4737414;30;20055;-74
2023/09/02 04:57:55;;;;;;;4.68;2.45;;;11.10;99.90;;;;;;4737139;30;20064;-74
2023/09/02 05:00:25;;;;;;;5.15;2.17;;;11.10;99.90;;;;;;4737319;30;20052;-74
2023/09/02 05:02:51;;;;;;;3.78;2.10;;;11.10;99.90;;;;;;4737452;30;20128;-74
2023/09/02 05:05:18;;;;;;;4.43;2.10;;;11.10;99.90;;;;;;4753276;30;20409;-74
2023/09/02 05:07:44;;;;;;;4.00;2.00;;;11.10;99.90;;;;;;4736948;30;20060;-74
2023/09/02 05:10:11;;;;;;;7.25;2.67;;;11.10;99.90;;;;;;4736611;30;20048;-74
2023/09/02 05:12:37;;;;;;;4.65;2.25;;;11.10;99.90;;;;;;4737290;30;20102;-74
2023/09/02 05:15:03;;;;;;;3.85;1.95;;;11.20;99.90;;;;;;4737331;30;20501;-74
2023/09/02 05:17:32;;;;;;;4.03;2.13;;;11.20;99.90;;;;;;4737327;30;20460;-74
2023/09/02 05:20:03;;;;;;;5.85;1.88;;;11.20;99.90;;;;;;4737118;30;20044;-74
2023/09/02 05:22:29;;;;;;;5.03;2.30;;;11.20;99.90;;;;;;4737429;30;20056;-74
2023/09/02 05:24:55;;;;;;;5.90;2.10;;;11.20;99.90;;;;;;4737153;30;20048;-74
2023/09/02 05:27:21;;;;;;;4.07;2.30;;;11.30;99.90;;;;;;4752786;30;20055;-74
2023/09/02 05:29:48;;;;;;;3.88;2.10;;;11.30;99.90;;;;;;4737188;30;20080;-74
2023/09/02 05:32:14;;;;;;;5.32;1.73;;;11.30;99.90;;;;;;4737154;30;20145;-74
2023/09/02 05:34:40;;;;;;;3.40;2.13;;;11.30;99.90;;;;;;4752843;30;20448;-74
2023/09/02 05:37:06;;;;;;;3.88;1.92;;;11.40;99.90;;;;;;4736754;30;20515;-74
2023/09/02 05:39:35;;;;;;;3.60;1.73;;;11.40;99.90;;;;;;4737012;30;20056;-73
2023/09/02 05:42:01;;;;;;;4.28;1.70;;;11.50;99.90;;;;;;4752830;30;20135;-74
2023/09/02 05:44:26;;;;;;;2.83;1.38;;;11.50;99.90;;;;;;4736978;30;20461;-74
2023/09/02 05:46:52;;;;;;;3.90;1.40;;;11.60;99.90;;;;;;4736684;30;20048;-74
2023/09/02 05:49:17;;;;;;;5.20;1.95;;;11.60;99.90;;;;;;4737160;30;20049;-74
2023/09/02 05:51:43;;;;;;;3.95;1.63;;;11.70;99.90;;;;;;4737025;30;20121;-74
2023/09/02 05:54:09;;;;;;;4.57;1.65;;;11.80;99.90;;;;;;4736975;30;20378;-74
2023/09/02 05:56:40;;;;;;;3.33;1.90;;;11.90;99.90;;;;;;4736733;30;20178;-74
2023/09/02 05:59:08;;;;;;;3.67;1.73;;;12.00;99.90;;;;;;4736969;30;20557;-74
2023/09/02 06:01:33;;;;;;;3.10;1.73;;;12.10;99.90;;;;;;4736717;30;20055;-74
2023/09/02 06:03:59;;;;;;;4.22;1.80;;;12.20;99.90;;;;;;4736975;30;20113;-74
2023/09/02 06:06:25;;;;;;;3.33;1.90;;;12.30;99.90;;;;;;4736585;30;20063;-74
2023/09/02 06:08:53;;;;;;;4.40;2.22;;;12.40;99.90;;;;;;4730407;30;20156;-73
2023/09/02 06:11:19;;;;;;;4.57;1.67;;;12.50;99.90;;;;;;4720173;30;20091;-73
2023/09/02 06:13:45;;;;;;;3.60;1.85;;;12.60;99.90;;;;;;4718795;30;20141;-73
2023/09/02 06:16:10;;;;;;;3.30;1.58;;;12.80;99.90;;;;;;4719114;30;20056;-74
2023/09/02 06:18:36;;;;;;;5.63;2.00;;;12.90;99.90;;;;;;4719115;30;20620;-73
2023/09/02 06:21:10;;;;;;;4.97;2.08;;;13.10;99.90;;;;;;4719574;30;20053;-73
2023/09/02 06:23:35;;;;;;;6.15;1.92;;;13.30;99.90;;;;;;4722337;30;20149;-73
2023/09/02 06:26:01;;;;;;;4.03;2.00;;;13.40;99.90;;;;;;4722065;30;20509;-73
2023/09/02 06:28:28;;;;;;;3.35;1.70;;;13.60;99.90;;;;;;4722074;30;20135;-74
2023/09/02 06:30:54;;;;;;;3.00;1.60;;;13.70;99.90;;;;;;4722285;30;20106;-73
2023/09/02 06:33:22;;;;;;;3.78;1.52;;;13.90;99.90;;;;;;4737885;30;20140;-74
2023/09/02 06:35:50;;;;;;;4.72;1.60;;;14.10;99.90;;;;;;4737639;30;20057;-74
2023/09/02 06:38:17;;;;;;;5.38;2.10;;;14.20;99.90;;;;;;4722013;30;20056;-73
2023/09/02 06:40:42;;;;;;;3.00;1.80;;;14.40;99.90;;;;;;4722226;30;20064;-73
2023/09/02 06:43:08;;;;;;;6.20;2.33;;;14.50;99.90;;;;;;4721982;30;20410;-73
2023/09/02 06:45:33;;;;;;;7.00;2.60;;;14.70;99.90;;;;;;4721800;30;20048;-74
2023/09/02 06:47:59;;;;;;;5.22;2.33;;;14.80;99.90;;;;;;4721900;30;20144;-73
2023/09/02 06:50:27;;;;;;;5.30;2.05;;;15.00;99.90;;;;;;4721823;30;20041;-74
2023/09/02 06:52:52;;;;;;;5.15;2.10;;;15.10;99.90;;;;;;4721996;30;20143;-73
2023/09/02 06:55:18;;;;;;;3.92;1.98;;;15.20;99.90;;;;;;4721830;30;20132;-73
2023/09/02 06:57:44;;;;;;;4.07;2.20;;;15.30;99.90;;;;;;4721574;30;20062;-73
2023/09/02 07:00:11;;;;;;;6.40;2.20;;;15.40;99.90;;;;;;4721815;30;20095;-74
2023/09/02 07:02:37;;;;;;;6.10;2.13;;;15.60;99.90;;;;;;4721519;30;20044;-73
2023/09/02 07:05:03;;;;;;;5.88;2.00;;;15.70;99.90;;;;;;4721897;30;20055;-73
2023/09/02 07:07:28;;;;;;;6.05;2.20;;;15.80;99.90;;;;;;4721741;30;20092;-73
2023/09/02 07:09:54;;;;;;;4.18;2.10;;;15.90;99.90;;;;;;4721668;30;20080;-73
2023/09/02 07:12:20;;;;;;;5.03;2.15;;;16.10;99.90;;;;;;4721444;30;20049;-73
2023/09/02 07:14:52;;;;;;;4.35;1.40;;;16.20;99.90;;;;;;4721566;30;20581;-73
2023/09/02 07:17:18;;;;;;;4.03;1.77;;;16.20;99.90;;;;;;4721986;30;20131;-73
2023/09/02 07:19:47;;;;;;;5.20;1.88;;;16.40;99.90;;;;;;4721272;30;20057;-73
2023/09/02 07:22:12;;;;;;;3.70;1.98;;;16.50;99.90;;;;;;4720866;30;20060;-73
2023/09/02 07:24:38;;;;;;;3.60;1.70;;;16.60;99.90;;;;;;4721472;30;20102;-73
2023/09/02 07:27:04;;;;;;;3.72;1.90;;;16.60;99.90;;;;;;4721093;30;20494;-73
2023/09/02 07:29:29;;;;;;;4.13;1.73;;;16.70;99.90;;;;;;4721083;30;20049;-73
2023/09/02 07:31:58;;;;;;;5.40;2.00;;;16.80;99.90;;;;;;4721325;30;20052;-73
2023/09/02 07:34:24;;;;;;;6.57;2.28;;;16.90;99.90;;;;;;4720726;30;20139;-73
2023/09/02 07:36:50;;;;;;;4.20;2.10;;;17.00;99.90;;;;;;4736893;30;20218;-73
2023/09/02 07:39:16;;;;;;;5.95;2.85;;;17.10;99.90;;;;;;4721252;30;20059;-74
2023/09/02 07:41:42;;;;;;;5.88;3.28;;;17.20;99.90;;;;;;4721188;30;20171;-73
2023/09/02 07:44:09;;;;;;;5.38;2.72;;;17.30;99.90;;;;;;4720873;30;20483;-73
2023/09/02 07:46:34;;;;;;;5.85;2.90;;;17.30;99.90;;;;;;4720881;30;20063;-73
2023/09/02 07:49:00;;;;;;;8.30;3.45;;;17.40;99.90;;;;;;4720657;30;20044;-73
2023/09/02 07:51:25;;;;;;;7.50;3.40;;;17.50;99.90;;;;;;4720764;30;20060;-74
2023/09/02 07:53:51;;;;;;;6.03;3.10;;;17.50;99.90;;;;;;4720851;30;20486;-76
2023/09/02 07:56:17;;;;;;;10.52;3.05;;;17.60;99.90;;;;;;4720661;30;20152;-77
2023/09/02 07:58:48;;;;;;;5.18;2.08;;;17.60;99.90;;;;;;4720803;30;20114;-75
2023/09/02 08:01:14;;;;;;;3.83;1.60;;;17.70;99.90;;;;;;4720935;30;20048;-75
2023/09/02 08:03:39;;;;;;;4.00;1.55;;;17.80;99.90;;;;;;4736678;30;20052;-74
2023/09/02 08:06:08;;;;;;;4.05;1.48;;;17.80;99.90;;;;;;4720598;30;20486;-74
2023/09/02 08:08:38;;;;;;;2.70;1.50;;;18.00;99.90;;;;;;4720962;30;20522;-75
2023/09/02 08:11:07;;;;;;;4.82;1.45;;;18.00;99.90;;;;;;4736463;30;20056;-75
2023/09/02 08:13:33;;;;;;;4.15;1.30;;;18.00;99.90;;;;;;4720932;30;20062;-74
2023/09/02 08:16:02;;;;;;;2.20;1.10;;;18.10;99.90;;;;;;4720762;30;20088;-74
2023/09/02 08:18:28;;;;;;;2.78;0.95;;;18.10;99.90;;;;;;4720281;30;20131;-74
2023/09/02 08:20:53;;;;;;;2.60;1.33;;;18.10;99.90;;;;;;4735491;30;20166;-74
2023/09/02 08:23:19;;;;;;;4.38;1.23;;;18.20;99.90;;;;;;4736305;30;20061;-74
2023/09/02 08:25:45;;;;;;;3.80;1.15;;;18.20;99.90;;;;;;4720342;30;20052;-74
2023/09/02 08:28:10;;;;;;;3.10;0.95;;;18.20;99.90;;;;;;4720363;30;20118;-74
2023/09/02 08:30:40;;;;;;;4.68;1.33;;;18.30;99.90;;;;;;4720307;30;20048;-74
2023/09/02 08:33:06;;;;;;;3.63;1.17;;;18.40;99.90;;;;;;4720284;30;20052;-74
2023/09/02 08:35:36;;;;;;;5.93;1.08;;;18.50;99.90;;;;;;4720347;30;20118;-74
2023/09/02 08:38:05;;;;;;;2.75;1.30;;;18.60;99.90;;;;;;4720218;30;20056;-74
2023/09/02 08:40:33;;;;;;;4.40;1.00;;;18.60;99.90;;;;;;4735773;30;20072;-74
2023/09/02 08:43:01;;;;;;;2.45;0.90;;;18.60;99.90;;;;;;4735784;30;20440;-75
2023/09/02 08:45:29;;;;;;;2.05;1.13;;;18.70;99.90;;;;;;4719490;30;20127;-74
2023/09/02 08:48:00;;;;;;;3.33;1.13;;;18.80;99.90;;;;;;4720340;30;20052;-75
2023/09/02 08:50:28;;;;;;;3.17;1.10;;;18.90;99.90;;;;;;4720058;30;20486;-74
2023/09/02 08:52:54;;;;;;;3.88;1.20;;;18.90;99.90;;;;;;4720395;30;20051;-75
2023/09/02 08:55:21;;;;;;;2.97;1.15;;;18.90;99.90;;;;;;4720119;30;20059;-74
2023/09/02 08:57:47;;;;;;;4.85;1.40;;;18.90;99.90;;;;;;4719850;30;20134;-75
2023/09/02 09:00:15;;;;;;;3.08;1.00;;;19.10;99.90;;;;;;4720194;30;20168;-75
2023/09/02 09:02:41;;;;;;;3.75;0.93;;;19.20;99.90;;;;;;4719993;30;20490;-75
2023/09/02 09:05:11;;;;;;;2.40;1.00;;;19.30;99.90;;;;;;4719837;30;20410;-75
2023/09/02 09:07:38;;;;;;;2.58;1.05;;;19.30;99.90;;;;;;4719790;30;20083;-74
2023/09/02 09:10:07;;;;;;;3.83;0.95;;;19.20;99.90;;;;;;4720026;30;20048;-75
2023/09/02 09:12:34;;;;;;;3.03;1.25;;;19.30;99.90;;;;;;4719628;30;20056;-75
2023/09/02 09:15:01;;;;;;;2.40;0.90;;;19.40;99.90;;;;;;4719923;30;20053;-75
2023/09/02 09:17:29;;;;;;;3.60;1.00;;;19.40;99.90;;;;;;4719735;30;20048;-74
2023/09/02 09:19:56;;;;;;;2.42;1.13;;;19.50;99.90;;;;;;4719905;30;20088;-74
2023/09/02 09:22:22;;;;;;;3.38;1.00;;;19.50;99.90;;;;;;4719636;30;20472;-75
2023/09/02 09:24:48;;;;;;;2.90;1.38;;;19.40;99.90;;;;;;4719442;30;20086;-75
2023/09/02 09:27:13;;;;;;;2.38;0.90;;;19.30;99.90;;;;;;4735500;30;20056;-75
2023/09/02 09:29:45;;;;;;;2.35;1.00;;;19.40;99.90;;;;;;4719718;30;20071;-75
2023/09/02 09:32:18;;;;;;;4.88;1.23;;;19.60;99.90;;;;;;4719676;30;20056;-75
2023/09/02 09:34:44;;;;;;;3.25;1.10;;;19.60;99.90;;;;;;4719701;30;20053;-75
2023/09/02 09:37:11;;;;;;;3.45;1.10;;;19.70;99.90;;;;;;4719253;30;20052;-75
2023/09/02 09:39:47;;;;;;;3.60;1.30;;;19.80;99.90;;;;;;4719517;30;20063;-75
2023/09/02 09:42:15;;;;;;;3.03;1.02;;;19.80;99.90;;;;;;4719419;30;20090;-75
2023/09/02 09:44:54;;;;;;;3.63;1.30;;;19.90;99.90;;;;;;4719395;30;20067;-75
2023/09/02 09:47:23;;;;;;;3.40;1.08;;;19.90;99.90;;;;;;4719460;30;20061;-74
2023/09/02 09:49:49;;;;;;;2.60;1.33;;;20.10;99.90;;;;;;4734939;30;20515;-75
2023/09/02 09:52:16;;;;;;;4.47;1.23;;;20.20;99.90;;;;;;4735307;30;20080;-75
2023/09/02 09:54:52;;;;;;;2.72;1.02;;;20.20;99.90;;;;;;4719232;30;20055;-75
2023/09/02 09:57:38;;;;;;;2.25;0.98;;;20.20;99.90;;;;;;4721302;30;20053;-75
2023/09/02 10:00:17;;;;;;;3.03;1.00;;;20.20;99.90;;;;;;4722737;30;20509;-75
2023/09/02 10:02:50;;;;;;;2.67;1.10;;;20.30;99.90;;;;;;4723037;30;20052;-75
2023/09/02 10:05:23;;;;;;;2.60;0.90;;;20.40;99.90;;;;;;4722651;30;20494;-75
2023/09/02 10:07:59;;;;;;;4.03;1.45;;;20.40;99.90;;;;;;4722955;30;20495;-75
2023/09/02 10:10:32;;;;;;;3.90;1.20;;;20.40;99.90;;;;;;4722528;30;20057;-75
2023/09/02 10:12:58;;;;;;;;;;;20.60;99.90;;;;;;4723184;30;20080;-75
2023/09/02 10:15:25;;;;;;;1.98;0.93;;;20.40;99.90;;;;;;4722559;30;20004;-75
2023/09/02 10:17:56;;;;;;;2.38;0.98;;;20.30;99.90;;;;;;4722507;30;20410;-75
2023/09/02 10:20:25;;;;;;;1.98;0.77;;;20.40;99.90;;;;;;4722481;30;20506;-75
2023/09/02 10:22:51;;;;;;;3.08;1.00;;;20.40;99.90;;;;;;4722659;30;20059;-75
2023/09/02 10:25:27;;;;;;;2.58;1.10;;;20.40;99.90;;;;;;4722511;30;20056;-74
2023/09/02 10:28:04;;;;;;;2.63;1.10;;;20.40;99.90;;;;;;4722376;30;20056;-75
2023/09/02 10:30:43;;;;;;;3.65;1.00;;;20.60;99.90;;;;;;4722649;30;20131;-75
2023/09/02 10:33:45;;;;;;;3.20;1.00;;;20.60;99.90;;;;;;4738289;30;20139;-75
2023/09/02 10:36:16;;;;;;;3.20;1.00;;;20.80;99.90;;;;;;4722219;30;20056;-75
2023/09/02 10:38:53;;;;;;;2.88;1.00;;;21.00;99.90;;;;;;4722174;30;20303;-75
2023/09/02 10:41:22;;;;;;;3.13;1.50;;;21.10;99.90;;;;;;4722417;30;20068;-75
2023/09/02 10:43:50;;;;;;;3.22;1.00;;;21.10;99.90;;;;;;4722426;30;20143;-75
2023/09/02 10:46:16;;;;;;;3.65;0.95;;;21.30;99.90;;;;;;4721883;30;20098;-75
2023/09/02 10:48:44;;;;;;;3.10;1.50;;;21.40;99.90;;;;;;4737859;30;20070;-75
2023/09/02 10:51:11;;;;;;;3.33;1.30;;;21.60;99.90;;;;;;4722174;30;20498;-75
2023/09/02 10:53:54;;;;;;;3.00;0.93;;;21.50;99.90;;;;;;4722284;30;20057;-75
2023/09/02 10:56:38;;;;;;;2.95;1.00;;;21.40;99.90;;;;;;4721794;30;20060;-75
2023/09/02 10:59:06;;;;;;;3.70;1.10;;;21.40;99.90;;;;;;4721868;30;20065;-75
2023/09/02 11:01:44;;;;;;;3.28;0.95;;;21.60;99.90;;;;;;4722041;30;20052;-75
2023/09/02 11:04:11;;;;;;;2.88;1.10;;;21.70;99.90;;;;;;4722026;30;20127;-75
2023/09/02 11:06:36;;;;;;;2.30;0.95;;;21.80;99.90;;;;;;4721647;30;20053;-75
2023/09/02 11:09:02;;;;;;;5.30;1.27;;;21.90;99.90;;;;;;4736815;30;20135;-75
2023/09/02 11:12:06;;;;;;;3.25;1.15;;;22.10;99.90;;;;;;4721983;30;20128;-75
2023/09/02 11:14:32;;;;;;;3.05;1.00;;;21.80;99.90;;;;;;4721797;30;20525;-75
2023/09/02 11:17:29;;;;;;;4.13;1.30;;;22.00;99.90;;;;;;4721767;30;20044;-75
2023/09/02 11:20:08;;;;;;;2.70;0.93;;;21.80;99.90;;;;;;4737237;30;20064;-75
2023/09/02 11:23:01;;;;;;;3.00;1.00;;;21.70;99.90;;;;;;4721731;30;20048;-75
2023/09/02 11:25:38;;;;;;;5.30;1.23;;;21.80;99.90;;;;;;4721381;30;20072;-75
2023/09/02 11:28:12;;;;;;;2.22;1.00;;;22.10;99.90;;;;;;4721697;30;20056;-75
2023/09/02 11:30:39;;;;;;;4.35;1.27;;;22.40;99.90;;;;;;4721698;30;20442;-75
2023/09/02 11:33:09;;;;;;;2.70;1.08;;;22.40;99.90;;;;;;4721579;30;20569;-75
2023/09/02 11:35:36;;;;;;;4.00;1.15;;;22.50;99.90;;;;;;4721407;30;20065;-75
2023/09/02 11:38:05;;;;;;;2.38;0.90;;;22.50;99.90;;;;;;4737142;30;20058;-75
2023/09/02 11:40:31;;;;;;;3.63;0.95;;;22.50;99.90;;;;;;4721414;30;20125;-75
2023/09/02 11:43:05;;;;;;;3.92;0.95;;;22.50;99.90;;;;;;4721493;30;20092;-75
2023/09/02 11:45:38;;;;;;;4.07;0.90;;;22.50;99.90;;;;;;4736751;30;20099;-75
2023/09/02 11:48:06;;;;;;;2.08;1.10;;;22.70;99.90;;;;;;4721227;30;20052;-75
2023/09/02 11:50:31;;;;;;;2.97;1.15;;;22.80;99.90;;;;;;4721262;30;20084;-75
2023/09/02 11:52:58;;;;;;;3.67;0.88;;;22.70;99.90;;;;;;4720898;30;20541;-75
2023/09/02 11:55:25;;;;;;;4.13;1.00;;;22.90;99.90;;;;;;4721016;30;20060;-75
2023/09/02 11:57:52;;;;;;;3.75;0.88;;;22.90;99.90;;;;;;4720834;30;20052;-75
2023/09/02 12:00:23;;;;;;;2.67;0.85;;;23.10;99.90;;;;;;4720776;30;20525;-76
2023/09/02 12:02:58;;;;;;;2.50;1.05;;;22.90;99.90;;;;;;4720649;30;20049;-76
2023/09/02 12:05:24;;;;;;;2.28;0.80;;;23.00;99.90;;;;;;4720868;30;20091;-75
2023/09/02 12:07:51;;;;;;;1.73;0.80;;;23.20;99.90;;;;;;4720657;30;20084;-75
2023/09/02 12:10:17;;;;;;;2.00;0.70;;;23.30;99.90;;;;;;4720606;30;20060;-76
2023/09/02 12:12:45;;;;;;;2.03;0.80;;;23.30;99.90;;;;;;4721134;30;20048;-75
2023/09/02 12:15:16;;;;;;;1.52;0.73;;;23.50;99.90;;;;;;4720734;30;20475;-75
2023/09/02 12:17:43;;;;;;;1.42;0.60;;;23.50;99.90;;;;;;4720743;30;20126;-75
2023/09/02 12:20:12;;;;;;;1.58;0.60;;;23.50;99.90;;;;;;4720582;30;20045;-75
2023/09/02 12:22:39;;;;;;;1.17;0.50;;;23.50;99.90;;;;;;4720669;30;20060;-75
2023/09/02 12:25:17;;;;;;;2.38;0.70;;;23.50;99.90;;;;;;4720571;30;20091;-75
2023/09/02 12:27:44;;;;;;;2.67;0.80;;;23.70;99.90;;;;;;4720686;30;20113;-75
2023/09/02 12:30:11;;;;;;;2.10;0.65;;;23.60;99.90;;;;;;4720519;30;20056;-75
2023/09/02 12:32:36;;;;;;;1.75;0.68;;;23.50;99.90;;;;;;4735963;30;20410;-75
2023/09/02 12:35:09;;;;;;;3.05;0.82;;;23.60;99.90;;;;;;4720384;30;20490;-76
2023/09/02 12:37:36;;;;;;;1.15;0.63;;;23.70;99.90;;;;;;4735886;30;20056;-75
2023/09/02 12:40:15;;;;;;;2.22;0.80;;;23.70;99.90;;;;;;4720236;30;20059;-76
2023/09/02 12:42:45;;;;;;;1.75;0.70;;;23.60;99.90;;;;;;4720336;30;20053;-76
2023/09/02 12:45:10;;;;;;;3.50;0.80;;;23.70;99.90;;;;;;4720179;30;20049;-75
2023/09/02 12:47:38;;;;;;;2.38;0.60;;;23.50;99.90;;;;;;4720641;30;20079;-75
2023/09/02 12:50:05;;;;;;;1.88;0.70;;;23.50;99.90;;;;;;4735891;30;20056;-75
2023/09/02 12:52:32;;;;;;;1.73;0.60;;;23.30;99.90;;;;;;4719947;30;20063;-75
2023/09/02 12:55:05;;;;;;;2.03;0.60;;;23.50;99.90;;;;;;4720196;30;20060;-76